Skyland, Nevada
Current Conditions -  °F | °C
As of 5:53 AM on Saturday 25 Oct 2014 (Local Time) from KTVL Reporting Station
Clear Clear  
Wind Chill: 52°   Ceiling: Unl
Heat Index: 52°   Visibility: 10mi
Dew Point: 23°   Wind: 18mph
Humidity: 32%   Direction: 190°S
Pressure: 29.99"   Gusts: 25mph
Location:  39.0164°N, 119.925°W
Report Text: KTVL 251253Z AUTO 19016G22KT 10SM CLR 11/M05 A2999 RMK AO2 PK WND 18029/1208 SLP103 T01111050
Loading
Personal Weather Stations






























Interactive Weather Map
Tropical Storm Tracking
New forecast layout! Learn more

10-Day Weather Forecast

Advertisements
Track Severe Weather on mobile